Time;durP1;ratioP1;P1;durP2;ratioP2;P2;SDS_P1;SDS_P2;PMS_P1;PMS_P2;Temp;Humidity;BMP_temperature;BMP_pressure;BME280_temperature;BME280_humidity;BME280_pressure;Samples;Min_cycle;Max_cycle;Signal;HPM_P1;HPM_P2
2023/11/27 00:01:19;;;;;;;1.70;1.50;;;5.50;98.20;;;;;;5050781;28;20484;-80
2023/11/27 00:03:46;;;;;;;1.70;1.50;;;5.50;98.20;;;;;;5071034;28;20458;-79
2023/11/27 00:06:12;;;;;;;1.67;1.40;;;5.50;98.20;;;;;;5060235;28;21101;-80
2023/11/27 00:08:39;;;;;;;1.70;1.50;;;5.50;98.20;;;;;;5076874;28;20495;-80
2023/11/27 00:11:08;;;;;;;1.60;1.30;;;5.50;98.20;;;;;;5067488;28;20471;-80
2023/11/27 00:13:35;;;;;;;1.60;1.30;;;5.50;98.20;;;;;;5095086;28;20488;-77
2023/11/27 00:16:02;;;;;;;1.60;1.30;;;5.50;98.20;;;;;;5064939;28;20473;-80
2023/11/27 00:18:28;;;;;;;1.60;1.30;;;5.50;98.20;;;;;;5092771;28;20484;-80
2023/11/27 00:20:55;;;;;;;1.63;1.30;;;5.50;98.20;;;;;;5061601;28;20461;-77
2023/11/27 00:23:23;;;;;;;1.70;1.40;;;5.50;98.20;;;;;;5080432;28;20466;-81
2023/11/27 00:25:50;;;;;;;1.60;1.30;;;5.50;98.20;;;;;;5053278;28;20975;-80
2023/11/27 00:28:18;;;;;;;1.63;1.30;;;5.50;98.20;;;;;;5077486;28;20729;-80
2023/11/27 00:30:45;;;;;;;1.60;1.30;;;5.50;98.20;;;;;;5077231;28;20465;-80
2023/11/27 00:33:12;;;;;;;1.80;1.70;;;5.50;98.20;;;;;;5064449;28;20538;-80
2023/11/27 00:35:39;;;;;;;1.60;1.30;;;5.50;98.20;;;;;;5076440;28;20569;-81
2023/11/27 00:38:06;;;;;;;1.70;1.40;;;5.50;98.20;;;;;;5076595;28;20484;-80
2023/11/27 00:40:32;;;;;;;1.60;1.30;;;5.50;98.20;;;;;;5070002;28;20477;-80
2023/11/27 00:42:59;;;;;;;1.60;1.30;;;5.50;98.20;;;;;;5057594;28;20477;-80
2023/11/27 00:45:27;;;;;;;1.70;1.40;;;5.50;98.20;;;;;;5058551;28;20462;-81
2023/11/27 00:47:55;;;;;;;1.60;1.30;;;5.50;98.20;;;;;;5082913;28;20480;-81
2023/11/27 00:50:22;;;;;;;1.60;1.30;;;5.50;98.20;;;;;;5067518;28;20541;-80
2023/11/27 00:52:49;;;;;;;1.60;1.30;;;5.60;98.20;;;;;;5069369;28;20479;-79
2023/11/27 00:55:15;;;;;;;1.67;1.33;;;5.60;98.20;;;;;;5067502;28;20850;-79
2023/11/27 00:57:42;;;;;;;1.60;1.30;;;5.60;98.20;;;;;;5067790;28;20479;-79
2023/11/27 01:00:10;;;;;;;1.70;1.40;;;5.60;98.20;;;;;;5075004;28;20662;-80
2023/11/27 01:02:39;;;;;;;1.70;1.53;;;5.60;98.20;;;;;;5086244;28;20499;-80
2023/11/27 01:05:08;;;;;;;1.63;1.30;;;5.60;98.20;;;;;;5071176;28;20462;-80
2023/11/27 01:07:35;;;;;;;1.60;1.30;;;5.60;98.20;;;;;;5074853;28;20818;-79
2023/11/27 01:10:02;;;;;;;1.60;1.30;;;5.60;98.20;;;;;;5078091;28;21196;-80
2023/11/27 01:12:29;;;;;;;1.63;1.30;;;5.60;98.20;;;;;;5058860;28;20512;-80
2023/11/27 01:14:56;;;;;;;1.70;1.33;;;5.60;98.20;;;;;;5083233;28;20846;-80
2023/11/27 01:17:22;;;;;;;1.60;1.30;;;5.60;98.20;;;;;;5064792;28;20491;-80
2023/11/27 01:19:50;;;;;;;1.70;1.40;;;5.60;98.20;;;;;;5060795;28;20462;-80
2023/11/27 01:22:17;;;;;;;1.60;1.30;;;5.60;98.20;;;;;;5082591;28;20488;-81
2023/11/27 01:24:44;;;;;;;1.60;1.30;;;5.60;98.20;;;;;;5076530;28;20465;-80
2023/11/27 01:27:11;;;;;;;1.60;1.30;;;5.60;98.20;;;;;;5066476;28;20508;-79
2023/11/27 01:29:38;;;;;;;1.60;1.30;;;5.60;98.20;;;;;;5075442;28;20484;-80
2023/11/27 01:32:05;;;;;;;1.60;1.30;;;5.60;98.20;;;;;;5072459;28;20988;-81
2023/11/27 01:34:32;;;;;;;1.63;1.30;;;5.60;98.20;;;;;;5072189;28;20494;-80
2023/11/27 01:37:00;;;;;;;1.63;1.40;;;5.60;98.20;;;;;;5074880;28;21014;-81
2023/11/27 01:39:28;;;;;;;1.70;1.40;;;5.60;98.20;;;;;;5073383;28;20488;-79
2023/11/27 01:41:54;;;;;;;1.60;1.30;;;5.60;98.20;;;;;;5071209;28;20576;-80
2023/11/27 01:44:21;;;;;;;1.60;1.30;;;5.60;98.20;;;;;;5077073;28;20460;-79
2023/11/27 01:46:48;;;;;;;1.67;1.30;;;5.60;98.20;;;;;;5060402;28;20488;-79
2023/11/27 01:49:17;;;;;;;1.60;1.30;;;5.50;98.20;;;;;;5078444;28;20486;-80
2023/11/27 01:51:44;;;;;;;1.67;1.30;;;5.50;98.20;;;;;;5066696;28;20484;-79
2023/11/27 01:54:13;;;;;;;1.67;1.30;;;5.50;98.20;;;;;;5082116;28;20844;-80
2023/11/27 01:56:44;;;;;;;1.63;1.33;;;5.50;98.20;;;;;;5071696;28;20469;-80
2023/11/27 01:59:11;;;;;;;1.70;1.30;;;5.50;98.20;;;;;;5075451;28;20473;-78
2023/11/27 02:01:38;;;;;;;1.70;1.40;;;5.50;98.20;;;;;;5080632;28;20530;-80
2023/11/27 02:04:05;;;;;;;1.60;1.30;;;5.50;98.20;;;;;;5096375;28;20452;-80
2023/11/27 02:06:32;;;;;;;1.63;1.30;;;5.40;98.20;;;;;;5071952;28;20489;-80
2023/11/27 02:08:59;;;;;;;1.60;1.30;;;5.40;98.20;;;;;;5071767;28;20479;-80
2023/11/27 02:11:27;;;;;;;1.63;1.30;;;5.40;98.20;;;;;;5074116;28;20471;-80
2023/11/27 02:13:54;;;;;;;1.60;1.30;;;5.40;98.20;;;;;;5083162;28;20475;-81
2023/11/27 02:16:23;;;;;;;1.60;1.30;;;5.40;98.20;;;;;;5069253;28;20473;-80
2023/11/27 02:18:50;;;;;;;1.60;1.30;;;5.40;98.20;;;;;;5073093;28;20485;-80
2023/11/27 02:21:18;;;;;;;1.60;1.30;;;5.40;98.20;;;;;;5066917;28;20472;-79
2023/11/27 02:23:46;;;;;;;1.67;1.37;;;5.40;98.20;;;;;;5085557;28;20529;-79
2023/11/27 02:26:13;;;;;;;1.60;1.40;;;5.40;98.20;;;;;;5057513;28;20538;-79
2023/11/27 02:28:40;;;;;;;1.60;1.30;;;5.40;98.20;;;;;;5084395;28;20478;-79
2023/11/27 02:31:07;;;;;;;1.63;1.40;;;5.40;98.20;;;;;;5065730;28;20503;-80
2023/11/27 02:33:34;;;;;;;1.70;1.40;;;5.40;98.20;;;;;;5083334;28;21064;-80
2023/11/27 02:36:01;;;;;;;1.60;1.33;;;5.40;98.20;;;;;;5073088;28;20794;-80
2023/11/27 02:38:28;;;;;;;1.60;1.33;;;5.40;98.20;;;;;;5087335;28;20488;-80
2023/11/27 02:40:56;;;;;;;1.63;1.30;;;5.40;98.20;;;;;;5054500;28;20454;-80
2023/11/27 02:43:23;;;;;;;1.60;1.30;;;5.40;98.20;;;;;;5066044;28;20483;-80
2023/11/27 02:45:51;;;;;;;1.60;1.30;;;5.30;98.20;;;;;;5061313;28;20456;-81
2023/11/27 02:48:17;;;;;;;1.70;1.47;;;5.30;98.20;;;;;;5092474;28;20515;-80
2023/11/27 02:50:44;;;;;;;1.60;1.30;;;5.30;98.20;;;;;;5071581;28;20937;-81
2023/11/27 02:53:12;;;;;;;1.70;1.40;;;5.40;98.20;;;;;;5080391;28;20478;-80
2023/11/27 02:55:39;;;;;;;1.60;1.37;;;5.40;98.20;;;;;;5063151;28;20529;-81
2023/11/27 02:58:07;;;;;;;1.70;1.40;;;5.40;98.20;;;;;;5077602;28;20552;-80
2023/11/27 03:00:34;;;;;;;1.70;1.50;;;5.40;98.20;;;;;;5072905;28;20848;-80
2023/11/27 03:03:02;;;;;;;1.60;1.30;;;5.40;98.20;;;;;;5083872;28;21130;-80
2023/11/27 03:05:29;;;;;;;1.60;1.40;;;5.40;98.20;;;;;;5078074;28;20492;-79
2023/11/27 03:07:57;;;;;;;1.60;1.30;;;5.40;98.20;;;;;;5093381;28;20482;-80
2023/11/27 03:10:24;;;;;;;1.60;1.30;;;5.40;98.20;;;;;;5081734;28;20456;-79
2023/11/27 03:12:51;;;;;;;1.70;1.40;;;5.40;98.20;;;;;;5070283;28;21120;-79
2023/11/27 03:15:20;;;;;;;1.70;1.50;;;5.40;98.20;;;;;;5072150;28;20489;-79
2023/11/27 03:17:47;;;;;;;1.60;1.30;;;5.40;98.20;;;;;;5077339;28;20479;-79
2023/11/27 03:20:14;;;;;;;1.60;1.30;;;5.40;98.20;;;;;;5075313;28;20743;-79
2023/11/27 03:22:41;;;;;;;2.93;2.73;;;5.40;98.20;;;;;;5058992;28;20873;-80
2023/11/27 03:25:08;;;;;;;1.60;1.40;;;5.40;98.20;;;;;;5076666;28;20459;-80
2023/11/27 03:27:36;;;;;;;1.67;1.47;;;5.40;98.20;;;;;;5076161;28;20476;-80
2023/11/27 03:30:03;;;;;;;1.60;1.30;;;5.40;98.20;;;;;;5069666;28;21013;-79
2023/11/27 03:32:31;;;;;;;1.60;1.30;;;5.40;98.20;;;;;;5077496;28;20532;-79
2023/11/27 03:34:58;;;;;;;1.60;1.40;;;5.40;98.20;;;;;;5081077;28;20488;-80
2023/11/27 03:37:25;;;;;;;1.60;1.30;;;5.40;98.20;;;;;;5071884;28;20505;-81
2023/11/27 03:39:52;;;;;;;1.60;1.30;;;5.30;98.20;;;;;;5081960;28;20495;-78
2023/11/27 03:42:19;;;;;;;1.60;1.30;;;5.30;98.20;;;;;;5076000;28;20480;-80
2023/11/27 03:44:45;;;;;;;1.63;1.37;;;5.30;98.20;;;;;;5078063;28;20461;-79
2023/11/27 03:47:12;;;;;;;2.53;2.33;;;5.30;98.20;;;;;;5070471;28;20472;-79
2023/11/27 03:49:40;;;;;;;1.60;1.40;;;5.30;98.20;;;;;;5079834;28;20496;-79
2023/11/27 03:52:07;;;;;;;1.63;1.30;;;5.20;98.20;;;;;;5068987;28;20973;-79
2023/11/27 03:54:34;;;;;;;1.63;1.30;;;5.20;98.20;;;;;;5079573;28;20909;-78
2023/11/27 03:57:01;;;;;;;1.60;1.30;;;5.20;98.20;;;;;;5073893;28;20525;-79
2023/11/27 03:59:27;;;;;;;1.60;1.30;;;5.20;98.20;;;;;;5079406;28;20898;-78
2023/11/27 04:01:54;;;;;;;1.70;1.30;;;5.20;98.20;;;;;;5056360;28;20492;-80
2023/11/27 04:04:21;;;;;;;1.60;1.40;;;5.20;98.20;;;;;;5070210;28;20517;-79
2023/11/27 04:06:49;;;;;;;1.60;1.33;;;5.10;98.20;;;;;;5073545;28;20481;-81
2023/11/27 04:09:20;;;;;;;1.63;1.30;;;5.10;98.20;;;;;;5089053;28;20476;-80
2023/11/27 04:11:48;;;;;;;1.70;1.40;;;5.10;98.20;;;;;;5069471;28;20583;-79
2023/11/27 04:14:15;;;;;;;1.67;1.40;;;5.10;98.20;;;;;;5086868;28;21144;-81
2023/11/27 04:16:42;;;;;;;1.60;1.30;;;5.10;98.20;;;;;;5080240;28;20512;-80
2023/11/27 04:19:09;;;;;;;1.60;1.30;;;5.10;98.20;;;;;;5088484;28;20484;-80
2023/11/27 04:21:35;;;;;;;1.63;1.30;;;5.10;98.20;;;;;;5064808;28;20481;-80
2023/11/27 04:24:04;;;;;;;1.60;1.30;;;5.10;98.20;;;;;;5078572;28;20961;-80
2023/11/27 04:26:31;;;;;;;1.60;1.30;;;5.10;98.20;;;;;;5070655;28;20750;-80
2023/11/27 04:28:58;;;;;;;1.60;1.30;;;5.10;98.20;;;;;;5081202;28;20488;-79
2023/11/27 04:31:25;;;;;;;1.60;1.30;;;5.10;98.20;;;;;;5074591;28;20473;-81
2023/11/27 04:33:52;;;;;;;1.67;1.40;;;5.10;98.20;;;;;;5087108;28;20565;-80
2023/11/27 04:36:19;;;;;;;1.63;1.30;;;5.10;98.20;;;;;;5074808;28;20577;-81
2023/11/27 04:38:48;;;;;;;1.60;1.30;;;5.10;98.20;;;;;;5092404;28;20538;-80
2023/11/27 04:41:16;;;;;;;1.63;1.40;;;5.10;98.20;;;;;;5073958;28;20464;-82
2023/11/27 04:43:43;;;;;;;1.67;1.30;;;5.10;98.20;;;;;;5097912;28;20457;-79
2023/11/27 04:46:11;;;;;;;1.60;1.30;;;5.10;98.20;;;;;;5077642;28;20566;-79
2023/11/27 04:48:37;;;;;;;1.63;1.30;;;5.10;98.20;;;;;;5095752;28;20543;-79
2023/11/27 04:51:05;;;;;;;1.60;1.30;;;5.10;98.20;;;;;;5064997;28;20937;-79
2023/11/27 04:53:32;;;;;;;1.60;1.30;;;5.10;98.20;;;;;;5081793;28;20453;-81
2023/11/27 04:55:58;;;;;;;1.60;1.30;;;5.10;98.20;;;;;;5073987;28;21004;-78
2023/11/27 04:58:26;;;;;;;1.60;1.30;;;5.10;98.20;;;;;;5095630;28;20567;-80
2023/11/27 05:00:53;;;;;;;1.60;1.40;;;5.10;98.20;;;;;;5074600;28;20461;-79
2023/11/27 05:03:21;;;;;;;1.60;1.40;;;5.00;98.20;;;;;;5095707;28;20461;-78
2023/11/27 05:05:48;;;;;;;1.60;1.30;;;5.00;98.20;;;;;;5061112;28;20616;-78
2023/11/27 05:08:15;;;;;;;1.60;1.40;;;5.00;98.20;;;;;;5089606;28;20524;-77
2023/11/27 05:10:42;;;;;;;1.63;1.40;;;4.90;98.20;;;;;;5070233;28;21424;-79
2023/11/27 05:13:09;;;;;;;1.60;1.30;;;4.90;98.20;;;;;;5082485;28;20493;-77
2023/11/27 05:15:37;;;;;;;1.60;1.30;;;4.90;98.20;;;;;;5069665;28;20523;-78
2023/11/27 05:18:04;;;;;;;1.63;1.40;;;4.90;98.20;;;;;;5068311;28;20485;-79
2023/11/27 05:20:31;;;;;;;1.60;1.40;;;4.90;98.20;;;;;;5062706;28;20560;-77
2023/11/27 05:23:00;;;;;;;1.60;1.30;;;4.90;98.20;;;;;;5070269;28;20631;-79
2023/11/27 05:25:26;;;;;;;1.70;1.47;;;4.90;98.20;;;;;;5064658;28;20841;-77
2023/11/27 05:27:53;;;;;;;1.70;1.40;;;4.90;98.20;;;;;;5071025;28;21034;-78
2023/11/27 05:30:21;;;;;;;1.70;1.50;;;4.90;98.20;;;;;;5063684;28;20454;-78
2023/11/27 05:32:50;;;;;;;1.63;1.40;;;4.90;98.20;;;;;;5067813;28;20562;-78
2023/11/27 05:35:17;;;;;;;1.67;1.30;;;4.80;98.20;;;;;;5060999;28;20549;-76
2023/11/27 05:37:43;;;;;;;1.60;1.30;;;4.80;98.20;;;;;;5066091;28;20564;-78
2023/11/27 05:40:11;;;;;;;1.70;1.40;;;4.80;98.20;;;;;;5069327;28;20453;-78
2023/11/27 05:42:40;;;;;;;1.63;1.33;;;4.80;98.20;;;;;;5074349;28;20482;-78
2023/11/27 05:45:10;;;;;;;1.63;1.40;;;4.80;98.20;;;;;;5081265;28;20544;-75
2023/11/27 05:47:37;;;;;;;1.60;1.40;;;4.70;98.20;;;;;;5064575;28;20488;-76
2023/11/27 05:50:08;;;;;;;1.67;1.40;;;4.70;98.20;;;;;;5054502;28;20469;-77
2023/11/27 05:52:35;;;;;;;1.60;1.30;;;4.70;98.20;;;;;;5071045;28;20480;-77
2023/11/27 05:55:01;;;;;;;1.60;1.20;;;4.70;98.20;;;;;;5079314;28;20480;-76
2023/11/27 05:57:29;;;;;;;1.70;1.50;;;4.70;98.20;;;;;;5071694;28;20571;-76
2023/11/27 05:59:56;;;;;;;1.67;1.37;;;4.70;98.20;;;;;;5081463;28;20477;-76
2023/11/27 06:02:23;;;;;;;1.60;1.30;;;4.70;98.20;;;;;;5075177;28;20480;-75
2023/11/27 06:04:50;;;;;;;1.63;1.40;;;4.60;98.20;;;;;;5070222;28;20657;-77
2023/11/27 06:07:19;;;;;;;1.63;1.40;;;4.60;98.20;;;;;;5068965;28;20492;-77
2023/11/27 06:09:46;;;;;;;1.67;1.30;;;4.60;98.20;;;;;;5064226;28;20529;-76
2023/11/27 06:12:13;;;;;;;1.60;1.33;;;4.60;98.20;;;;;;5071067;28;20495;-76
2023/11/27 06:14:40;;;;;;;1.70;1.40;;;4.60;98.20;;;;;;5072934;28;20481;-75
2023/11/27 06:17:07;;;;;;;1.67;1.40;;;4.60;98.20;;;;;;5070375;28;20477;-73
2023/11/27 06:19:34;;;;;;;1.60;1.40;;;4.60;98.20;;;;;;5067219;28;20483;-74
2023/11/27 06:22:01;;;;;;;1.60;1.33;;;4.60;98.20;;;;;;5060495;28;20636;-73
2023/11/27 06:24:29;;;;;;;1.67;1.40;;;4.60;98.20;;;;;;5068647;28;20479;-74
2023/11/27 06:26:56;;;;;;;1.63;1.40;;;4.60;98.20;;;;;;5068283;28;20982;-74
2023/11/27 06:29:23;;;;;;;1.60;1.30;;;4.60;98.20;;;;;;5075891;28;20549;-73
2023/11/27 06:31:50;;;;;;;1.70;1.37;;;4.50;98.20;;;;;;5059472;28;20476;-75
2023/11/27 06:34:17;;;;;;;1.60;1.40;;;4.60;98.20;;;;;;5076548;28;20508;-75
2023/11/27 06:36:44;;;;;;;1.63;1.40;;;4.50;98.20;;;;;;5065171;28;20521;-75
2023/11/27 06:39:11;;;;;;;1.67;1.40;;;4.50;98.20;;;;;;5078391;28;20492;-75
2023/11/27 06:41:39;;;;;;;1.70;1.40;;;4.50;98.20;;;;;;5062640;28;20490;-75
2023/11/27 06:44:09;;;;;;;1.60;1.40;;;4.60;98.20;;;;;;5076140;28;20466;-76
2023/11/27 06:46:35;;;;;;;1.67;1.50;;;4.60;98.20;;;;;;5059797;28;20496;-78
2023/11/27 06:49:04;;;;;;;2.63;2.43;;;4.60;98.20;;;;;;5071246;28;20511;-75
2023/11/27 06:51:31;;;;;;;1.70;1.50;;;4.50;98.20;;;;;;5062292;28;20479;-74
2023/11/27 06:53:57;;;;;;;1.70;1.40;;;4.50;98.20;;;;;;5079180;28;20459;-75
2023/11/27 06:56:24;;;;;;;1.60;1.40;;;4.50;98.20;;;;;;5058220;28;20474;-74
2023/11/27 06:58:52;;;;;;;1.63;1.40;;;4.50;98.20;;;;;;5075142;28;20495;-73
2023/11/27 07:01:19;;;;;;;1.63;1.30;;;4.50;98.20;;;;;;5062234;28;20563;-76
2023/11/27 07:03:46;;;;;;;1.63;1.40;;;4.50;98.20;;;;;;5073363;28;20671;-75
2023/11/27 07:06:13;;;;;;;1.60;1.30;;;4.50;98.20;;;;;;5059160;28;20914;-76
2023/11/27 07:08:40;;;;;;;1.60;1.30;;;4.40;98.20;;;;;;5075808;28;20851;-76
2023/11/27 07:11:08;;;;;;;1.60;1.37;;;4.40;98.20;;;;;;5059906;28;20968;-77
2023/11/27 07:13:35;;;;;;;1.63;1.30;;;4.40;98.20;;;;;;5080710;28;20488;-77
2023/11/27 07:16:04;;;;;;;1.60;1.30;;;4.50;98.20;;;;;;5062706;28;20486;-76
2023/11/27 07:18:31;;;;;;;1.70;1.50;;;4.50;98.20;;;;;;5083124;28;20555;-76
2023/11/27 07:20:58;;;;;;;1.63;1.37;;;4.50;98.20;;;;;;5057410;28;20453;-77
2023/11/27 07:23:26;;;;;;;1.67;1.40;;;4.50;98.20;;;;;;5086574;28;20483;-76
2023/11/27 07:25:54;;;;;;;1.63;1.40;;;4.50;98.20;;;;;;5059777;28;20462;-76
2023/11/27 07:28:20;;;;;;;2.60;2.40;;;4.50;98.20;;;;;;5084608;28;20843;-77
2023/11/27 07:30:47;;;;;;;1.70;1.40;;;4.50;98.20;;;;;;5061161;28;20842;-77
2023/11/27 07:33:15;;;;;;;1.63;1.40;;;4.50;98.20;;;;;;5086456;28;20474;-78
2023/11/27 07:35:42;;;;;;;1.70;1.43;;;4.50;98.20;;;;;;5070387;28;20583;-78
2023/11/27 07:38:09;;;;;;;1.60;1.30;;;4.50;98.20;;;;;;5069558;28;20568;-77
2023/11/27 07:40:36;;;;;;;1.63;1.40;;;4.50;98.20;;;;;;5070813;28;20460;-77
2023/11/27 07:43:04;;;;;;;1.60;1.40;;;4.60;98.20;;;;;;5075410;28;20759;-76
2023/11/27 07:45:31;;;;;;;1.60;1.33;;;4.60;98.20;;;;;;5062170;28;21030;-79
2023/11/27 07:47:58;;;;;;;1.60;1.30;;;4.60;98.20;;;;;;5070882;28;21044;-76
2023/11/27 07:50:29;;;;;;;1.67;1.40;;;4.50;98.20;;;;;;5073187;28;20463;-77
2023/11/27 07:52:56;;;;;;;1.60;1.30;;;4.50;98.20;;;;;;5073646;28;20476;-76
2023/11/27 07:55:23;;;;;;;1.67;1.40;;;4.40;98.20;;;;;;5063718;28;20489;-76
2023/11/27 07:57:50;;;;;;;1.63;1.40;;;4.50;98.20;;;;;;5066038;28;20495;-76
2023/11/27 08:00:17;;;;;;;3.17;2.90;;;4.40;98.20;;;;;;5066906;28;20492;-78
2023/11/27 08:02:44;;;;;;;1.60;1.30;;;4.40;98.20;;;;;;5067117;28;20488;-75
2023/11/27 08:05:11;;;;;;;1.60;1.40;;;4.40;98.20;;;;;;5066722;28;20446;-76
2023/11/27 08:07:39;;;;;;;1.70;1.40;;;4.40;98.20;;;;;;5071188;28;20481;-76
2023/11/27 08:10:09;;;;;;;1.67;1.47;;;4.40;98.20;;;;;;5077817;28;20959;-76
2023/11/27 08:12:36;;;;;;;1.67;1.40;;;4.40;98.20;;;;;;5069803;28;20484;-76
2023/11/27 08:15:05;;;;;;;1.60;1.40;;;4.40;98.20;;;;;;5076786;28;20499;-78
2023/11/27 08:17:33;;;;;;;1.60;1.37;;;4.40;98.20;;;;;;5075274;28;20476;-75
2023/11/27 08:20:00;;;;;;;1.60;1.30;;;4.30;98.20;;;;;;5072388;28;20546;-76
2023/11/27 08:22:27;;;;;;;2.13;1.93;;;4.30;98.20;;;;;;5076766;28;20540;-76
2023/11/27 08:24:57;;;;;;;1.63;1.40;;;4.30;98.20;;;;;;5076939;28;20470;-76
2023/11/27 08:27:26;;;;;;;1.60;1.40;;;4.30;98.20;;;;;;5081353;28;21070;-77
2023/11/27 08:29:53;;;;;;;1.60;1.33;;;4.30;98.20;;;;;;5074130;28;20457;-77
2023/11/27 08:32:20;;;;;;;1.67;1.40;;;4.30;98.20;;;;;;5068956;28;20518;-76
2023/11/27 08:34:47;;;;;;;1.60;1.40;;;4.30;98.20;;;;;;5063940;28;20462;-76
2023/11/27 08:37:16;;;;;;;1.60;1.40;;;4.20;98.20;;;;;;5066775;28;20485;-77
2023/11/27 08:39:43;;;;;;;1.63;1.40;;;4.20;98.20;;;;;;5068714;28;20489;-76
2023/11/27 08:42:11;;;;;;;1.67;1.40;;;4.20;98.20;;;;;;5068472;28;20525;-76
2023/11/27 08:44:38;;;;;;;1.70;1.40;;;4.20;98.20;;;;;;5074799;28;20511;-77
2023/11/27 08:47:05;;;;;;;1.70;1.50;;;4.20;98.20;;;;;;5071622;28;20488;-78
2023/11/27 08:49:32;;;;;;;1.70;1.60;;;4.20;98.20;;;;;;5080040;28;20484;-77
2023/11/27 08:52:00;;;;;;;1.60;1.40;;;4.20;98.20;;;;;;5069838;28;20908;-76
2023/11/27 08:54:32;;;;;;;1.63;1.30;;;4.20;98.20;;;;;;5072834;28;20472;-75
2023/11/27 08:56:59;;;;;;;1.63;1.30;;;4.20;98.20;;;;;;5069317;28;20492;-76
2023/11/27 08:59:27;;;;;;;1.70;1.50;;;4.20;98.20;;;;;;5076201;28;20487;-77
2023/11/27 09:01:54;;;;;;;1.63;1.40;;;4.20;98.20;;;;;;5066681;28;20472;-78
2023/11/27 09:04:22;;;;;;;1.60;1.30;;;4.20;98.20;;;;;;5078318;28;20527;-75
2023/11/27 09:06:50;;;;;;;3.20;3.00;;;4.20;98.20;;;;;;5064402;28;20675;-76
2023/11/27 09:09:17;;;;;;;1.63;1.30;;;4.20;98.20;;;;;;5079508;28;21051;-77
2023/11/27 09:11:44;;;;;;;1.67;1.40;;;4.20;98.20;;;;;;5071214;28;20785;-76
2023/11/27 09:14:11;;;;;;;1.60;1.40;;;4.30;98.20;;;;;;5087870;28;20511;-76
2023/11/27 09:16:39;;;;;;;1.60;1.40;;;4.30;98.20;;;;;;5063037;28;20481;-75
2023/11/27 09:19:07;;;;;;;1.60;1.40;;;4.30;98.20;;;;;;5073505;28;20589;-77
2023/11/27 09:21:41;;;;;;;1.60;1.30;;;4.30;98.20;;;;;;5064886;28;20469;-78
2023/11/27 09:24:08;;;;;;;1.60;1.30;;;4.30;98.20;;;;;;5085639;28;20456;-79
2023/11/27 09:26:35;;;;;;;1.67;1.40;;;4.30;98.20;;;;;;5065272;28;20484;-77
2023/11/27 09:29:01;;;;;;;1.60;1.40;;;4.30;98.20;;;;;;5079213;28;20477;-76
2023/11/27 09:31:29;;;;;;;1.70;1.60;;;4.30;98.20;;;;;;5065424;28;20471;-76
2023/11/27 09:33:57;;;;;;;1.60;1.30;;;4.30;98.20;;;;;;5076218;28;20465;-74
2023/11/27 09:36:26;;;;;;;1.63;1.30;;;4.30;98.20;;;;;;5069077;28;20554;-74
2023/11/27 09:38:53;;;;;;;1.63;1.40;;;4.30;98.20;;;;;;5085812;28;20506;-78
2023/11/27 09:41:20;;;;;;;1.60;1.40;;;4.40;98.20;;;;;;5070752;28;20480;-76
2023/11/27 09:43:46;;;;;;;1.63;1.40;;;4.40;98.20;;;;;;5074811;28;20466;-77
2023/11/27 09:46:20;;;;;;;1.60;1.40;;;4.40;98.20;;;;;;5061137;28;20492;-75
2023/11/27 09:48:51;;;;;;;1.60;1.33;;;4.40;98.20;;;;;;5077573;28;20489;-76
2023/11/27 09:51:20;;;;;;;1.63;1.40;;;4.40;98.20;;;;;;5059762;28;20479;-76
2023/11/27 09:53:51;;;;;;;1.63;1.40;;;4.40;98.20;;;;;;5075892;28;20501;-75
2023/11/27 09:56:25;;;;;;;1.63;1.40;;;4.40;98.20;;;;;;5059529;28;20918;-77
2023/11/27 09:58:53;;;;;;;1.70;1.50;;;4.40;98.20;;;;;;5077169;28;20538;-76
2023/11/27 10:01:21;;;;;;;1.60;1.33;;;4.40;98.20;;;;;;5060706;28;20864;-75
2023/11/27 10:03:52;;;;;;;1.63;1.40;;;4.40;98.20;;;;;;5072646;28;21055;-76
2023/11/27 10:06:20;;;;;;;1.63;1.40;;;4.40;98.20;;;;;;5060248;28;20465;-75
2023/11/27 10:09:00;;;;;;;1.67;1.40;;;4.30;98.20;;;;;;5074172;28;20485;-75
2023/11/27 10:11:28;;;;;;;1.60;1.30;;;4.30;98.20;;;;;;5061691;28;20561;-77
2023/11/27 10:13:55;;;;;;;1.63;1.40;;;4.30;98.20;;;;;;5078748;28;20466;-76
2023/11/27 10:16:23;;;;;;;1.70;1.50;;;4.30;98.20;;;;;;5055771;28;20484;-75
2023/11/27 10:18:51;;;;;;;1.63;1.40;;;4.30;98.20;;;;;;5058238;28;20539;-76
2023/11/27 10:21:21;;;;;;;1.60;1.30;;;4.30;98.20;;;;;;5061734;28;20584;-76
2023/11/27 10:23:50;;;;;;;1.60;1.40;;;4.30;98.20;;;;;;5074598;28;20992;-77
2023/11/27 10:26:20;;;;;;;1.60;1.30;;;4.40;98.20;;;;;;5060916;28;20476;-76
2023/11/27 10:28:50;;;;;;;1.63;1.40;;;4.40;98.20;;;;;;5074312;28;20488;-76
2023/11/27 10:31:16;;;;;;;1.63;1.30;;;4.40;98.20;;;;;;5061340;28;20465;-77
2023/11/27 10:33:44;;;;;;;1.63;1.40;;;4.40;98.20;;;;;;5079845;28;20461;-76
2023/11/27 10:36:11;;;;;;;1.60;1.30;;;4.40;98.20;;;;;;5061292;28;20835;-76
2023/11/27 10:38:39;;;;;;;1.60;1.30;;;4.40;98.20;;;;;;5079491;28;20493;-76
2023/11/27 10:41:07;;;;;;;1.60;1.40;;;4.40;98.20;;;;;;5060461;28;20786;-75
2023/11/27 10:43:35;;;;;;;1.60;1.40;;;4.50;98.20;;;;;;5078903;28;20468;-75
2023/11/27 10:46:07;;;;;;;1.70;1.50;;;4.40;98.20;;;;;;5061041;28;20531;-75
2023/11/27 10:48:35;;;;;;;1.67;1.40;;;4.40;98.20;;;;;;5076041;28;20495;-76
2023/11/27 10:51:03;;;;;;;1.67;1.40;;;4.50;98.20;;;;;;5059609;28;20458;-76
2023/11/27 10:53:32;;;;;;;1.63;1.40;;;4.40;98.20;;;;;;5080531;28;20500;-78
2023/11/27 10:56:03;;;;;;;1.60;1.30;;;4.50;98.20;;;;;;5055416;28;20457;-78
2023/11/27 10:58:30;;;;;;;1.60;1.30;;;4.50;98.20;;;;;;5076988;28;20568;-77
2023/11/27 11:00:57;;;;;;;1.60;1.30;;;4.50;98.20;;;;;;5053460;28;20789;-76
2023/11/27 11:03:27;;;;;;;1.70;1.40;;;4.50;98.20;;;;;;5065449;28;20548;-79
2023/11/27 11:05:59;;;;;;;1.60;1.30;;;4.50;98.20;;;;;;5054828;28;20467;-77
2023/11/27 11:08:27;;;;;;;1.63;1.30;;;4.50;98.20;;;;;;5073000;28;20488;-77
2023/11/27 11:10:55;;;;;;;1.60;1.40;;;4.50;98.20;;;;;;5055331;28;20575;-79
2023/11/27 11:13:25;;;;;;;1.70;1.50;;;4.50;98.20;;;;;;5079270;28;20485;-75
2023/11/27 11:15:57;;;;;;;1.60;1.30;;;4.50;98.20;;;;;;5054122;28;20457;-78
2023/11/27 11:18:35;;;;;;;1.63;1.40;;;4.50;98.20;;;;;;5078595;28;20560;-78
2023/11/27 11:21:23;;;;;;;1.63;1.30;;;4.50;98.20;;;;;;5063537;28;20462;-79
2023/11/27 11:24:01;;;;;;;1.60;1.40;;;4.40;98.20;;;;;;5073099;28;20461;-77
2023/11/27 11:26:41;;;;;;;1.70;1.50;;;4.40;98.20;;;;;;5059405;28;21020;-78
2023/11/27 11:29:15;;;;;;;1.63;1.30;;;4.50;98.20;;;;;;5071959;28;20492;-78
2023/11/27 11:31:43;;;;;;;1.60;1.30;;;4.50;98.20;;;;;;5059625;28;21206;-79
2023/11/27 11:34:19;;;;;;;1.60;1.30;;;4.50;98.20;;;;;;5072750;28;20460;-79
2023/11/27 11:36:46;;;;;;;1.63;1.40;;;4.50;98.20;;;;;;5058734;28;20545;-76
2023/11/27 11:39:18;;;;;;;1.60;1.30;;;4.50;98.20;;;;;;5071287;28;20497;-77
2023/11/27 11:41:45;;;;;;;1.60;1.40;;;4.50;98.20;;;;;;5061376;28;20508;-78
2023/11/27 11:44:18;;;;;;;1.60;1.30;;;4.50;98.20;;;;;;5076111;28;20461;-79
2023/11/27 11:46:46;;;;;;;1.63;1.30;;;4.50;98.20;;;;;;5061874;28;20499;-76
2023/11/27 11:49:18;;;;;;;1.60;1.30;;;4.50;98.20;;;;;;5072597;28;20482;-77
2023/11/27 11:52:00;;;;;;;1.60;1.30;;;4.50;98.20;;;;;;5063416;28;20480;-76
2023/11/27 11:54:31;;;;;;;1.67;1.37;;;4.50;98.20;;;;;;5076561;28;20471;-76
2023/11/27 11:57:12;;;;;;;1.70;1.40;;;4.50;98.20;;;;;;5061645;28;20874;-75
2023/11/27 11:59:44;;;;;;;1.67;1.30;;;4.50;98.20;;;;;;5066940;28;21006;-76
2023/11/27 12:02:12;;;;;;;1.60;1.30;;;4.50;98.20;;;;;;5063905;28;20576;-75
2023/11/27 12:04:40;;;;;;;1.63;1.30;;;4.50;98.20;;;;;;5068778;28;20457;-76
2023/11/27 12:07:08;;;;;;;1.60;1.30;;;4.50;98.20;;;;;;5069566;28;20484;-78
2023/11/27 12:09:36;;;;;;;1.60;1.30;;;4.50;98.20;;;;;;5072967;28;20570;-76
2023/11/27 12:12:03;;;;;;;1.60;1.40;;;4.50;98.20;;;;;;5067885;28;20476;-74
2023/11/27 12:14:32;;;;;;;1.67;1.33;;;4.50;98.20;;;;;;5072606;28;20501;-78
2023/11/27 12:17:00;;;;;;;1.70;1.40;;;4.50;98.20;;;;;;5068616;28;20642;-78
2023/11/27 12:19:28;;;;;;;1.60;1.40;;;4.50;98.20;;;;;;5075517;28;20485;-75
2023/11/27 12:21:56;;;;;;;1.63;1.40;;;4.50;98.20;;;;;;5056043;28;20990;-78
2023/11/27 12:24:23;;;;;;;1.60;1.30;;;4.50;98.20;;;;;;5072414;28;20572;-77
2023/11/27 12:26:52;;;;;;;1.60;1.30;;;4.50;98.20;;;;;;5060285;28;20482;-78
2023/11/27 12:29:20;;;;;;;1.67;1.40;;;4.60;98.20;;;;;;5070013;28;20473;-76
2023/11/27 12:31:47;;;;;;;1.67;1.40;;;4.60;98.20;;;;;;5058414;28;20679;-77
2023/11/27 12:34:16;;;;;;;1.60;1.40;;;4.60;98.20;;;;;;5068731;28;20514;-77
2023/11/27 12:36:44;;;;;;;1.60;1.40;;;4.60;98.20;;;;;;5052084;28;20535;-77
2023/11/27 12:39:22;;;;;;;1.60;1.30;;;4.60;98.20;;;;;;5062428;28;20491;-77
2023/11/27 12:41:49;;;;;;;1.60;1.30;;;4.60;98.20;;;;;;5059131;28;21002;-76
2023/11/27 12:44:20;;;;;;;1.67;1.37;;;4.60;98.20;;;;;;5068897;28;20457;-77
2023/11/27 12:46:49;;;;;;;1.60;1.40;;;4.60;98.20;;;;;;5059960;28;20909;-75
2023/11/27 12:49:22;;;;;;;1.60;1.40;;;4.50;98.20;;;;;;5070820;28;20581;-78
2023/11/27 12:51:52;;;;;;;1.60;1.30;;;4.60;98.20;;;;;;5061521;28;21110;-76
2023/11/27 12:54:19;;;;;;;1.60;1.30;;;4.50;98.20;;;;;;5073979;28;20494;-76
2023/11/27 12:56:52;;;;;;;1.60;1.30;;;4.60;98.20;;;;;;5064153;28;20516;-76
2023/11/27 12:59:23;;;;;;;1.60;1.30;;;4.60;98.20;;;;;;5071329;28;20481;-76
2023/11/27 13:01:55;;;;;;;1.63;1.30;;;4.60;98.20;;;;;;5063572;28;20476;-77